sensor_id;sensor_type;location;lat;lon;timestamp;pressure;altitude;pressure_sealevel;temperature;humidity
4705;BME280;2366;51.332;6.610;2022-07-04T00:00:14;101836.19;;;18.85;55.41
4705;BME280;2366;51.332;6.610;2022-07-04T00:02:42;101840.94;;;18.82;55.35
4705;BME280;2366;51.332;6.610;2022-07-04T00:05:08;101834.72;;;18.81;55.33
4705;BME280;2366;51.332;6.610;2022-07-04T00:07:43;101840.34;;;18.78;55.53
4705;BME280;2366;51.332;6.610;2022-07-04T00:10:11;101838.41;;;18.80;55.71
4705;BME280;2366;51.332;6.610;2022-07-04T00:12:36;101836.78;;;18.78;55.76
4705;BME280;2366;51.332;6.610;2022-07-04T00:15:03;101831.63;;;18.75;55.79
4705;BME280;2366;51.332;6.610;2022-07-04T00:17:29;101829.22;;;18.72;55.82
4705;BME280;2366;51.332;6.610;2022-07-04T00:19:55;101829.44;;;18.68;55.83
4705;BME280;2366;51.332;6.610;2022-07-04T00:22:20;101830.41;;;18.67;55.92
4705;BME280;2366;51.332;6.610;2022-07-04T00:24:46;101831.84;;;18.60;56.31
4705;BME280;2366;51.332;6.610;2022-07-04T00:27:11;101829.78;;;18.53;56.34
4705;BME280;2366;51.332;6.610;2022-07-04T00:29:36;101828.56;;;18.45;56.85
4705;BME280;2366;51.332;6.610;2022-07-04T00:32:02;101831.44;;;18.42;57.00
4705;BME280;2366;51.332;6.610;2022-07-04T00:34:28;101832.44;;;18.41;57.31
4705;BME280;2366;51.332;6.610;2022-07-04T00:36:53;101837.19;;;18.38;57.61
4705;BME280;2366;51.332;6.610;2022-07-04T00:39:19;101832.66;;;18.38;57.79
4705;BME280;2366;51.332;6.610;2022-07-04T00:41:45;101825.59;;;18.37;57.99
4705;BME280;2366;51.332;6.610;2022-07-04T00:44:11;101818.75;;;18.33;57.99
4705;BME280;2366;51.332;6.610;2022-07-04T00:46:37;101813.59;;;18.30;57.98
4705;BME280;2366;51.332;6.610;2022-07-04T00:49:03;101817.38;;;18.27;58.42
4705;BME280;2366;51.332;6.610;2022-07-04T00:51:29;101816.41;;;18.29;58.42
4705;BME280;2366;51.332;6.610;2022-07-04T00:53:55;101818.72;;;18.22;58.49
4705;BME280;2366;51.332;6.610;2022-07-04T00:56:22;101812.81;;;18.17;58.97
4705;BME280;2366;51.332;6.610;2022-07-04T00:58:48;101816.50;;;18.16;59.19
4705;BME280;2366;51.332;6.610;2022-07-04T01:01:14;101813.06;;;18.14;59.07
4705;BME280;2366;51.332;6.610;2022-07-04T01:03:40;101815.97;;;18.11;59.47
4705;BME280;2366;51.332;6.610;2022-07-04T01:06:06;101815.25;;;18.09;59.67
4705;BME280;2366;51.332;6.610;2022-07-04T01:08:40;101807.69;;;18.02;59.61
4705;BME280;2366;51.332;6.610;2022-07-04T01:11:07;101806.94;;;18.00;59.85
4705;BME280;2366;51.332;6.610;2022-07-04T01:13:32;101809.84;;;17.97;60.29
4705;BME280;2366;51.332;6.610;2022-07-04T01:15:58;101803.97;;;17.92;60.39
4705;BME280;2366;51.332;6.610;2022-07-04T01:18:24;101806.16;;;17.87;60.70
4705;BME280;2366;51.332;6.610;2022-07-04T01:20:49;101807.22;;;17.84;60.79
4705;BME280;2366;51.332;6.610;2022-07-04T01:23:15;101803.88;;;17.81;61.13
4705;BME280;2366;51.332;6.610;2022-07-04T01:25:41;101809.16;;;17.82;61.35
4705;BME280;2366;51.332;6.610;2022-07-04T01:28:06;101811.31;;;17.77;61.36
4705;BME280;2366;51.332;6.610;2022-07-04T01:30:32;101805.94;;;17.77;61.54
4705;BME280;2366;51.332;6.610;2022-07-04T01:32:57;101802.50;;;17.75;61.28
4705;BME280;2366;51.332;6.610;2022-07-04T01:35:23;101802.13;;;17.69;61.56
4705;BME280;2366;51.332;6.610;2022-07-04T01:37:49;101805.03;;;17.65;62.02
4705;BME280;2366;51.332;6.610;2022-07-04T01:40:15;101797.44;;;17.59;62.21
4705;BME280;2366;51.332;6.610;2022-07-04T01:42:41;101806.69;;;17.55;62.87
4705;BME280;2366;51.332;6.610;2022-07-04T01:45:07;101800.47;;;17.55;62.84
4705;BME280;2366;51.332;6.610;2022-07-04T01:47:34;101796.19;;;17.52;62.90
4705;BME280;2366;51.332;6.610;2022-07-04T01:50:00;101798.88;;;17.52;62.81
4705;BME280;2366;51.332;6.610;2022-07-04T01:52:26;101806.03;;;17.52;63.05
4705;BME280;2366;51.332;6.610;2022-07-04T01:54:51;101815.66;;;17.54;62.93
4705;BME280;2366;51.332;6.610;2022-07-04T01:57:17;101813.97;;;17.53;62.73
4705;BME280;2366;51.332;6.610;2022-07-04T01:59:42;101809.81;;;17.49;62.92
4705;BME280;2366;51.332;6.610;2022-07-04T02:02:26;101803.59;;;17.49;63.29
4705;BME280;2366;51.332;6.610;2022-07-04T02:04:52;101812.72;;;17.46;63.25
4705;BME280;2366;51.332;6.610;2022-07-04T02:07:17;101809.50;;;17.41;63.35
4705;BME280;2366;51.332;6.610;2022-07-04T02:09:43;101800.09;;;17.35;63.36
4705;BME280;2366;51.332;6.610;2022-07-04T02:12:08;101806.06;;;17.39;63.59
4705;BME280;2366;51.332;6.610;2022-07-04T02:14:53;101805.56;;;17.34;63.49
4705;BME280;2366;51.332;6.610;2022-07-04T02:17:19;101809.09;;;17.34;63.68
4705;BME280;2366;51.332;6.610;2022-07-04T02:19:44;101810.28;;;17.30;63.79
4705;BME280;2366;51.332;6.610;2022-07-04T02:22:10;101811.72;;;17.23;64.04
4705;BME280;2366;51.332;6.610;2022-07-04T02:24:35;101822.00;;;17.16;64.52
4705;BME280;2366;51.332;6.610;2022-07-04T02:27:01;101820.75;;;17.09;64.59
4705;BME280;2366;51.332;6.610;2022-07-04T02:29:26;101828.78;;;17.09;64.86
4705;BME280;2366;51.332;6.610;2022-07-04T02:31:52;101825.78;;;17.01;64.97
4705;BME280;2366;51.332;6.610;2022-07-04T02:34:17;101833.19;;;16.97;65.05
4705;BME280;2366;51.332;6.610;2022-07-04T02:36:43;101831.56;;;16.95;65.32
4705;BME280;2366;51.332;6.610;2022-07-04T02:39:08;101842.81;;;17.00;65.46
4705;BME280;2366;51.332;6.610;2022-07-04T02:41:34;101838.66;;;16.96;65.11
4705;BME280;2366;51.332;6.610;2022-07-04T02:44:00;101845.94;;;16.94;65.40
4705;BME280;2366;51.332;6.610;2022-07-04T02:46:25;101840.69;;;16.92;65.37
4705;BME280;2366;51.332;6.610;2022-07-04T02:48:51;101834.69;;;16.89;65.13
4705;BME280;2366;51.332;6.610;2022-07-04T02:51:16;101841.97;;;16.87;65.35
4705;BME280;2366;51.332;6.610;2022-07-04T02:53:42;101843.91;;;16.84;65.38
4705;BME280;2366;51.332;6.610;2022-07-04T02:56:07;101843.13;;;16.82;65.45
4705;BME280;2366;51.332;6.610;2022-07-04T02:58:33;101847.66;;;16.82;65.38
4705;BME280;2366;51.332;6.610;2022-07-04T03:00:58;101855.78;;;16.80;65.43
4705;BME280;2366;51.332;6.610;2022-07-04T03:03:24;101862.31;;;16.76;65.30
4705;BME280;2366;51.332;6.610;2022-07-04T03:05:49;101862.59;;;16.72;65.76
4705;BME280;2366;51.332;6.610;2022-07-04T03:08:15;101864.66;;;16.68;65.87
4705;BME280;2366;51.332;6.610;2022-07-04T03:10:40;101859.50;;;16.65;65.68
4705;BME280;2366;51.332;6.610;2022-07-04T03:13:05;101863.06;;;16.66;66.01
4705;BME280;2366;51.332;6.610;2022-07-04T03:15:31;101866.59;;;16.66;66.06
4705;BME280;2366;51.332;6.610;2022-07-04T03:17:56;101872.88;;;16.65;66.19
4705;BME280;2366;51.332;6.610;2022-07-04T03:20:22;101876.44;;;16.66;66.07
4705;BME280;2366;51.332;6.610;2022-07-04T03:22:47;101880.06;;;16.64;66.15
4705;BME280;2366;51.332;6.610;2022-07-04T03:25:13;101882.63;;;16.66;66.03
4705;BME280;2366;51.332;6.610;2022-07-04T03:27:39;101886.25;;;16.65;66.11
4705;BME280;2366;51.332;6.610;2022-07-04T03:30:05;101881.66;;;16.67;66.19
4705;BME280;2366;51.332;6.610;2022-07-04T03:32:30;101886.16;;;16.67;66.01
4705;BME280;2366;51.332;6.610;2022-07-04T03:34:55;101887.78;;;16.69;66.16
4705;BME280;2366;51.332;6.610;2022-07-04T03:37:21;101887.56;;;16.72;66.12
4705;BME280;2366;51.332;6.610;2022-07-04T03:39:46;101885.66;;;16.74;65.94
4705;BME280;2366;51.332;6.610;2022-07-04T03:42:11;101883.72;;;16.76;66.06
4705;BME280;2366;51.332;6.610;2022-07-04T03:44:37;101883.72;;;16.76;66.01
4705;BME280;2366;51.332;6.610;2022-07-04T03:47:02;101880.31;;;16.74;65.92
4705;BME280;2366;51.332;6.610;2022-07-04T03:49:28;101885.44;;;16.77;66.06
4705;BME280;2366;51.332;6.610;2022-07-04T03:51:53;101897.59;;;16.83;66.01
4705;BME280;2366;51.332;6.610;2022-07-04T03:54:18;101895.63;;;17.23;66.42
4705;BME280;2366;51.332;6.610;2022-07-04T03:56:44;101889.38;;;18.34;64.35
4705;BME280;2366;51.332;6.610;2022-07-04T03:59:09;101894.72;;;19.27;61.35
4705;BME280;2366;51.332;6.610;2022-07-04T04:01:34;101898.41;;;20.03;58.60
4705;BME280;2366;51.332;6.610;2022-07-04T04:04:00;101896.63;;;20.78;55.95
4705;BME280;2366;51.332;6.610;2022-07-04T04:06:44;101898.22;;;21.42;53.03
4705;BME280;2366;51.332;6.610;2022-07-04T04:09:09;101889.84;;;21.95;50.89
4705;BME280;2366;51.332;6.610;2022-07-04T04:11:41;101893.44;;;22.35;49.76
4705;BME280;2366;51.332;6.610;2022-07-04T04:14:07;101903.09;;;22.67;48.99
4705;BME280;2366;51.332;6.610;2022-07-04T04:16:32;101896.63;;;22.97;47.92
4705;BME280;2366;51.332;6.610;2022-07-04T04:18:58;101896.44;;;23.46;46.63
4705;BME280;2366;51.332;6.610;2022-07-04T04:21:23;101906.09;;;23.86;45.58
4705;BME280;2366;51.332;6.610;2022-07-04T04:23:48;101893.47;;;24.12;43.85
4705;BME280;2366;51.332;6.610;2022-07-04T04:26:14;101905.91;;;24.41;44.08
4705;BME280;2366;51.332;6.610;2022-07-04T04:28:39;101898.81;;;24.84;43.48
4705;BME280;2366;51.332;6.610;2022-07-04T04:31:05;101900.72;;;25.18;42.38
4705;BME280;2366;51.332;6.610;2022-07-04T04:33:30;101893.06;;;25.39;41.78
4705;BME280;2366;51.332;6.610;2022-07-04T04:35:55;101899.44;;;25.73;41.14
4705;BME280;2366;51.332;6.610;2022-07-04T04:38:21;101901.22;;;25.90;40.94
4705;BME280;2366;51.332;6.610;2022-07-04T04:40:46;101896.34;;;26.27;40.09
4705;BME280;2366;51.332;6.610;2022-07-04T04:43:11;101908.72;;;26.54;39.77
4705;BME280;2366;51.332;6.610;2022-07-04T04:45:37;101916.88;;;26.95;38.47
4705;BME280;2366;51.332;6.610;2022-07-04T04:48:02;101917.88;;;27.58;37.70
4705;BME280;2366;51.332;6.610;2022-07-04T04:50:28;101920.19;;;27.30;37.54
4705;BME280;2366;51.332;6.610;2022-07-04T04:52:53;101921.03;;;27.30;37.56
4705;BME280;2366;51.332;6.610;2022-07-04T04:55:18;101922.34;;;27.51;37.34
4705;BME280;2366;51.332;6.610;2022-07-04T04:57:44;101916.47;;;27.31;37.22
4705;BME280;2366;51.332;6.610;2022-07-04T05:00:10;101923.47;;;27.56;36.97
4705;BME280;2366;51.332;6.610;2022-07-04T05:02:35;101921.50;;;27.81;37.00
4705;BME280;2366;51.332;6.610;2022-07-04T05:05:00;101914.94;;;28.45;36.13
4705;BME280;2366;51.332;6.610;2022-07-04T05:07:26;101912.47;;;29.26;34.07
4705;BME280;2366;51.332;6.610;2022-07-04T05:09:51;101913.69;;;29.89;33.44
4705;BME280;2366;51.332;6.610;2022-07-04T05:12:23;101916.00;;;30.50;32.16
4705;BME280;2366;51.332;6.610;2022-07-04T05:14:48;101919.78;;;30.78;31.40
4705;BME280;2366;51.332;6.610;2022-07-04T05:17:14;101915.97;;;31.00;31.08
4705;BME280;2366;51.332;6.610;2022-07-04T05:19:39;101914.06;;;30.73;31.71
4705;BME280;2366;51.332;6.610;2022-07-04T05:22:04;101918.41;;;30.17;32.69
4705;BME280;2366;51.332;6.610;2022-07-04T05:24:30;101930.84;;;29.83;32.80
4705;BME280;2366;51.332;6.610;2022-07-04T05:26:55;101919.81;;;29.92;32.52
4705;BME280;2366;51.332;6.610;2022-07-04T05:29:20;101934.00;;;29.80;33.03
4705;BME280;2366;51.332;6.610;2022-07-04T05:31:46;101929.19;;;29.53;32.04
4705;BME280;2366;51.332;6.610;2022-07-04T05:34:11;101931.84;;;29.31;33.86
4705;BME280;2366;51.332;6.610;2022-07-04T05:36:36;101934.84;;;29.36;33.02
4705;BME280;2366;51.332;6.610;2022-07-04T05:39:02;101931.38;;;29.72;33.07
4705;BME280;2366;51.332;6.610;2022-07-04T05:41:27;101926.91;;;30.07;32.86
4705;BME280;2366;51.332;6.610;2022-07-04T05:43:53;101929.91;;;30.56;31.24
4705;BME280;2366;51.332;6.610;2022-07-04T05:46:18;101931.25;;;30.88;31.20
4705;BME280;2366;51.332;6.610;2022-07-04T05:48:43;101926.63;;;30.60;31.51
4705;BME280;2366;51.332;6.610;2022-07-04T05:51:09;101922.25;;;30.73;31.64
4705;BME280;2366;51.332;6.610;2022-07-04T05:53:34;101921.63;;;31.75;29.92
4705;BME280;2366;51.332;6.610;2022-07-04T05:55:59;101924.53;;;32.68;29.19
4705;BME280;2366;51.332;6.610;2022-07-04T05:58:26;101924.28;;;32.17;28.74
4705;BME280;2366;51.332;6.610;2022-07-04T06:00:51;101922.19;;;32.52;29.01
4705;BME280;2366;51.332;6.610;2022-07-04T06:03:17;101919.34;;;33.39;27.39
4705;BME280;2366;51.332;6.610;2022-07-04T06:05:42;101923.22;;;33.11;28.59
4705;BME280;2366;51.332;6.610;2022-07-04T06:08:08;101919.06;;;32.68;29.32
4705;BME280;2366;51.332;6.610;2022-07-04T06:10:33;101916.25;;;32.02;29.36
4705;BME280;2366;51.332;6.610;2022-07-04T06:12:59;101905.09;;;32.30;29.82
4705;BME280;2366;51.332;6.610;2022-07-04T06:15:24;101905.31;;;32.55;29.16
4705;BME280;2366;51.332;6.610;2022-07-04T06:17:49;101903.00;;;32.65;29.04
4705;BME280;2366;51.332;6.610;2022-07-04T06:20:15;101908.25;;;32.87;28.65
4705;BME280;2366;51.332;6.610;2022-07-04T06:22:45;101901.38;;;33.36;27.78
4705;BME280;2366;51.332;6.610;2022-07-04T06:25:16;101906.31;;;33.21;27.33
4705;BME280;2366;51.332;6.610;2022-07-04T06:27:44;101894.28;;;33.08;27.61
4705;BME280;2366;51.332;6.610;2022-07-04T06:30:10;101909.88;;;33.28;26.81
4705;BME280;2366;51.332;6.610;2022-07-04T06:32:49;101899.81;;;33.53;26.95
4705;BME280;2366;51.332;6.610;2022-07-04T06:35:18;101897.53;;;33.89;26.62
4705;BME280;2366;51.332;6.610;2022-07-04T06:38:02;101905.00;;;34.70;24.88
4705;BME280;2366;51.332;6.610;2022-07-04T06:40:28;101891.56;;;33.99;26.07
4705;BME280;2366;51.332;6.610;2022-07-04T06:42:53;101897.16;;;34.17;26.45
4705;BME280;2366;51.332;6.610;2022-07-04T06:45:19;101906.69;;;34.90;24.53
4705;BME280;2366;51.332;6.610;2022-07-04T06:47:44;101896.28;;;34.73;24.93
4705;BME280;2366;51.332;6.610;2022-07-04T06:50:10;101899.78;;;34.81;25.42
4705;BME280;2366;51.332;6.610;2022-07-04T06:52:35;101909.69;;;35.44;24.53
4705;BME280;2366;51.332;6.610;2022-07-04T06:55:01;101905.22;;;35.91;23.96
4705;BME280;2366;51.332;6.610;2022-07-04T06:57:26;101911.16;;;35.46;24.83
4705;BME280;2366;51.332;6.610;2022-07-04T06:59:52;101909.53;;;35.57;23.81
4705;BME280;2366;51.332;6.610;2022-07-04T07:02:17;101907.41;;;34.85;25.24
4705;BME280;2366;51.332;6.610;2022-07-04T07:04:43;101905.75;;;34.77;25.95
4705;BME280;2366;51.332;6.610;2022-07-04T07:07:08;101908.41;;;35.46;24.13
4705;BME280;2366;51.332;6.610;2022-07-04T07:09:34;101903.56;;;35.90;23.43
4705;BME280;2366;51.332;6.610;2022-07-04T07:12:00;101909.31;;;35.89;23.98
4705;BME280;2366;51.332;6.610;2022-07-04T07:14:25;101917.00;;;36.29;23.05
4705;BME280;2366;51.332;6.610;2022-07-04T07:16:51;101915.91;;;36.30;23.22
4705;BME280;2366;51.332;6.610;2022-07-04T07:19:16;101915.84;;;36.48;23.14
4705;BME280;2366;51.332;6.610;2022-07-04T07:21:41;101904.06;;;36.53;22.39
4705;BME280;2366;51.332;6.610;2022-07-04T07:24:07;101902.88;;;36.84;22.21
4705;BME280;2366;51.332;6.610;2022-07-04T07:26:32;101906.25;;;36.63;22.27
4705;BME280;2366;51.332;6.610;2022-07-04T07:28:58;101912.94;;;35.89;23.06
4705;BME280;2366;51.332;6.610;2022-07-04T07:31:23;101905.06;;;36.70;22.30
4705;BME280;2366;51.332;6.610;2022-07-04T07:33:48;101901.31;;;36.53;23.49
4705;BME280;2366;51.332;6.610;2022-07-04T07:36:14;101900.56;;;36.22;22.87
4705;BME280;2366;51.332;6.610;2022-07-04T07:38:39;101899.25;;;36.36;22.33
4705;BME280;2366;51.332;6.610;2022-07-04T07:41:09;101899.19;;;36.78;22.01
4705;BME280;2366;51.332;6.610;2022-07-04T07:43:34;101898.41;;;37.07;22.10
4705;BME280;2366;51.332;6.610;2022-07-04T07:46:00;101899.25;;;37.19;21.33
4705;BME280;2366;51.332;6.610;2022-07-04T07:48:25;101903.50;;;36.74;21.48
4705;BME280;2366;51.332;6.610;2022-07-04T07:50:51;101901.09;;;36.66;22.06
4705;BME280;2366;51.332;6.610;2022-07-04T07:53:17;101898.31;;;36.54;21.88
4705;BME280;2366;51.332;6.610;2022-07-04T07:55:42;101897.16;;;36.74;22.59
4705;BME280;2366;51.332;6.610;2022-07-04T07:58:08;101903.94;;;37.18;21.17
4705;BME280;2366;51.332;6.610;2022-07-04T08:00:33;101895.56;;;36.78;21.86
4705;BME280;2366;51.332;6.610;2022-07-04T08:02:59;101899.72;;;35.91;23.36
4705;BME280;2366;51.332;6.610;2022-07-04T08:05:43;101900.28;;;35.70;24.04
4705;BME280;2366;51.332;6.610;2022-07-04T08:08:08;101903.94;;;36.24;22.78
4705;BME280;2366;51.332;6.610;2022-07-04T08:10:36;101889.41;;;36.29;22.81
4705;BME280;2366;51.332;6.610;2022-07-04T08:13:02;101890.25;;;36.29;22.49
4705;BME280;2366;51.332;6.610;2022-07-04T08:15:27;101889.44;;;35.38;24.08
4705;BME280;2366;51.332;6.610;2022-07-04T08:17:52;101885.13;;;35.42;24.27
4705;BME280;2366;51.332;6.610;2022-07-04T08:20:18;101888.50;;;35.07;25.20
4705;BME280;2366;51.332;6.610;2022-07-04T08:22:43;101890.06;;;35.52;25.06
4705;BME280;2366;51.332;6.610;2022-07-04T08:25:09;101884.88;;;35.07;24.00
4705;BME280;2366;51.332;6.610;2022-07-04T08:27:34;101883.72;;;34.96;24.27
4705;BME280;2366;51.332;6.610;2022-07-04T08:30:00;101881.19;;;35.50;23.13
4705;BME280;2366;51.332;6.610;2022-07-04T08:32:25;101887.06;;;35.42;23.76
4705;BME280;2366;51.332;6.610;2022-07-04T08:34:51;101886.94;;;35.18;24.51
4705;BME280;2366;51.332;6.610;2022-07-04T08:37:17;101885.06;;;34.25;24.56
4705;BME280;2366;51.332;6.610;2022-07-04T08:39:43;101896.38;;;34.85;23.75
4705;BME280;2366;51.332;6.610;2022-07-04T08:42:15;101896.88;;;34.75;23.61
4705;BME280;2366;51.332;6.610;2022-07-04T08:44:47;101891.56;;;34.99;24.11
4705;BME280;2366;51.332;6.610;2022-07-04T08:47:17;101891.31;;;34.64;24.97
4705;BME280;2366;51.332;6.610;2022-07-04T08:49:48;101885.66;;;33.95;25.15
4705;BME280;2366;51.332;6.610;2022-07-04T08:52:18;101884.16;;;33.99;24.64
4705;BME280;2366;51.332;6.610;2022-07-04T08:54:50;101878.84;;;34.54;24.22
4705;BME280;2366;51.332;6.610;2022-07-04T08:57:34;101873.88;;;33.88;24.97
4705;BME280;2366;51.332;6.610;2022-07-04T09:00:18;101876.16;;;34.73;24.76
4705;BME280;2366;51.332;6.610;2022-07-04T09:02:44;101879.00;;;34.85;24.45
4705;BME280;2366;51.332;6.610;2022-07-04T09:05:09;101869.28;;;34.64;23.82
4705;BME280;2366;51.332;6.610;2022-07-04T09:07:35;101877.50;;;34.39;24.13
4705;BME280;2366;51.332;6.610;2022-07-04T09:10:02;101877.72;;;33.80;25.38
4705;BME280;2366;51.332;6.610;2022-07-04T09:12:28;101875.41;;;33.77;26.04
4705;BME280;2366;51.332;6.610;2022-07-04T09:14:53;101864.22;;;34.35;24.90
4705;BME280;2366;51.332;6.610;2022-07-04T09:17:20;101870.34;;;34.63;24.81
4705;BME280;2366;51.332;6.610;2022-07-04T09:20:11;101865.66;;;34.63;23.99
4705;BME280;2366;51.332;6.610;2022-07-04T09:22:37;101872.56;;;34.72;24.83
4705;BME280;2366;51.332;6.610;2022-07-04T09:25:04;101873.03;;;34.88;24.07
4705;BME280;2366;51.332;6.610;2022-07-04T09:27:35;101866.84;;;35.11;23.64
4705;BME280;2366;51.332;6.610;2022-07-04T09:30:02;101866.06;;;35.04;23.37
4705;BME280;2366;51.332;6.610;2022-07-04T09:32:39;101867.78;;;35.05;22.78
4705;BME280;2366;51.332;6.610;2022-07-04T09:35:08;101865.88;;;34.62;23.83
4705;BME280;2366;51.332;6.610;2022-07-04T09:37:35;101856.81;;;34.04;24.83
4705;BME280;2366;51.332;6.610;2022-07-04T09:40:03;101862.09;;;34.38;23.95
4705;BME280;2366;51.332;6.610;2022-07-04T09:42:37;101859.75;;;34.60;23.33
4705;BME280;2366;51.332;6.610;2022-07-04T09:45:07;101869.34;;;34.75;23.39
4705;BME280;2366;51.332;6.610;2022-07-04T09:47:33;101868.59;;;34.87;23.88
4705;BME280;2366;51.332;6.610;2022-07-04T09:52:51;101869.03;;;34.15;24.24
4705;BME280;2366;51.332;6.610;2022-07-04T09:55:29;101873.66;;;34.46;24.33
4705;BME280;2366;51.332;6.610;2022-07-04T09:58:03;101866.22;;;34.47;23.27
4705;BME280;2366;51.332;6.610;2022-07-04T10:00:34;101868.97;;;34.22;23.94
4705;BME280;2366;51.332;6.610;2022-07-04T10:03:19;101867.00;;;34.54;23.16
4705;BME280;2366;51.332;6.610;2022-07-04T10:05:47;101873.03;;;34.19;24.68
4705;BME280;2366;51.332;6.610;2022-07-04T10:08:12;101874.91;;;33.48;25.71
4705;BME280;2366;51.332;6.610;2022-07-04T10:10:38;101869.22;;;33.88;25.98
4705;BME280;2366;51.332;6.610;2022-07-04T10:13:12;101863.09;;;33.41;25.48
4705;BME280;2366;51.332;6.610;2022-07-04T10:15:39;101866.13;;;33.26;24.96
4705;BME280;2366;51.332;6.610;2022-07-04T10:18:07;101862.66;;;32.86;25.28
4705;BME280;2366;51.332;6.610;2022-07-04T10:20:33;101865.75;;;33.09;24.17
4705;BME280;2366;51.332;6.610;2022-07-04T10:22:59;101866.81;;;33.02;25.62
4705;BME280;2366;51.332;6.610;2022-07-04T10:25:25;101858.66;;;32.82;25.96
4705;BME280;2366;51.332;6.610;2022-07-04T10:27:51;101860.16;;;32.51;27.48
4705;BME280;2366;51.332;6.610;2022-07-04T10:30:25;101850.66;;;32.00;26.93
4705;BME280;2366;51.332;6.610;2022-07-04T10:32:52;101846.94;;;31.53;28.33
4705;BME280;2366;51.332;6.610;2022-07-04T10:38:18;101842.53;;;30.76;26.64
4705;BME280;2366;51.332;6.610;2022-07-04T10:40:55;101839.31;;;30.65;27.37
4705;BME280;2366;51.332;6.610;2022-07-04T10:45:50;101824.56;;;29.88;29.04
4705;BME280;2366;51.332;6.610;2022-07-04T10:48:21;101830.97;;;30.24;28.96
4705;BME280;2366;51.332;6.610;2022-07-04T10:51:04;101830.38;;;30.50;29.35
4705;BME280;2366;51.332;6.610;2022-07-04T10:53:30;101827.34;;;30.17;29.59
4705;BME280;2366;51.332;6.610;2022-07-04T10:58:40;101826.47;;;30.16;29.17
4705;BME280;2366;51.332;6.610;2022-07-04T11:01:15;101826.09;;;30.19;27.92
4705;BME280;2366;51.332;6.610;2022-07-04T11:03:48;101821.63;;;30.68;28.62
4705;BME280;2366;51.332;6.610;2022-07-04T11:09:16;101817.72;;;30.84;28.97
4705;BME280;2366;51.332;6.610;2022-07-04T11:17:00;101805.44;;;31.49;27.79
4705;BME280;2366;51.332;6.610;2022-07-04T11:19:26;101802.34;;;31.24;25.85
4705;BME280;2366;51.332;6.610;2022-07-04T11:21:57;101794.16;;;30.83;25.59
4705;BME280;2366;51.332;6.610;2022-07-04T11:24:23;101800.88;;;30.80;27.83
4705;BME280;2366;51.332;6.610;2022-07-04T11:26:49;101808.16;;;30.66;27.78
4705;BME280;2366;51.332;6.610;2022-07-04T11:29:15;101797.06;;;30.75;27.07
4705;BME280;2366;51.332;6.610;2022-07-04T11:31:43;101786.56;;;30.78;26.69
4705;BME280;2366;51.332;6.610;2022-07-04T11:34:09;101792.56;;;30.95;26.67
4705;BME280;2366;51.332;6.610;2022-07-04T11:36:35;101801.88;;;31.07;27.55
4705;BME280;2366;51.332;6.610;2022-07-04T11:39:04;101790.72;;;30.67;27.40
4705;BME280;2366;51.332;6.610;2022-07-04T11:44:23;101787.03;;;29.39;28.88
4705;BME280;2366;51.332;6.610;2022-07-04T11:47:16;101784.13;;;30.05;28.56
4705;BME280;2366;51.332;6.610;2022-07-04T11:49:56;101781.56;;;30.25;26.42
4705;BME280;2366;51.332;6.610;2022-07-04T11:52:22;101778.47;;;30.28;26.81
4705;BME280;2366;51.332;6.610;2022-07-04T11:54:49;101780.56;;;29.62;27.45
4705;BME280;2366;51.332;6.610;2022-07-04T11:57:17;101783.72;;;29.44;28.49
4705;BME280;2366;51.332;6.610;2022-07-04T11:59:53;101783.44;;;29.97;28.49
4705;BME280;2366;51.332;6.610;2022-07-04T12:02:20;101785.34;;;30.24;28.18
4705;BME280;2366;51.332;6.610;2022-07-04T12:04:45;101784.44;;;30.74;28.22
4705;BME280;2366;51.332;6.610;2022-07-04T12:07:12;101783.63;;;30.45;27.39
4705;BME280;2366;51.332;6.610;2022-07-04T12:09:39;101784.34;;;30.04;27.97
4705;BME280;2366;51.332;6.610;2022-07-04T12:12:05;101775.09;;;29.62;28.35
4705;BME280;2366;51.332;6.610;2022-07-04T12:14:30;101770.19;;;29.72;28.61
4705;BME280;2366;51.332;6.610;2022-07-04T12:19:57;101779.34;;;29.86;28.73
4705;BME280;2366;51.332;6.610;2022-07-04T12:22:42;101778.38;;;29.94;29.15
4705;BME280;2366;51.332;6.610;2022-07-04T12:25:20;101769.69;;;29.68;28.99
4705;BME280;2366;51.332;6.610;2022-07-04T12:30:21;101777.75;;;30.20;28.41
4705;BME280;2366;51.332;6.610;2022-07-04T12:32:51;101763.66;;;29.73;28.47
4705;BME280;2366;51.332;6.610;2022-07-04T12:35:41;101770.38;;;29.13;29.81
4705;BME280;2366;51.332;6.610;2022-07-04T12:41:10;101761.69;;;29.24;28.87
4705;BME280;2366;51.332;6.610;2022-07-04T12:46:07;101758.84;;;29.32;29.66
4705;BME280;2366;51.332;6.610;2022-07-04T12:48:33;101763.19;;;29.48;29.65
4705;BME280;2366;51.332;6.610;2022-07-04T12:51:18;101761.34;;;29.34;28.83
4705;BME280;2366;51.332;6.610;2022-07-04T12:53:45;101758.28;;;29.22;29.31
4705;BME280;2366;51.332;6.610;2022-07-04T12:56:32;101755.06;;;29.55;29.63
4705;BME280;2366;51.332;6.610;2022-07-04T12:59:00;101750.34;;;29.85;28.84
4705;BME280;2366;51.332;6.610;2022-07-04T13:01:26;101747.09;;;29.38;29.73
4705;BME280;2366;51.332;6.610;2022-07-04T13:03:52;101753.88;;;29.42;29.88
4705;BME280;2366;51.332;6.610;2022-07-04T13:06:17;101752.47;;;29.46;29.90
4705;BME280;2366;51.332;6.610;2022-07-04T13:08:44;101756.78;;;29.77;29.27
4705;BME280;2366;51.332;6.610;2022-07-04T13:11:09;101754.31;;;29.24;27.51
4705;BME280;2366;51.332;6.610;2022-07-04T13:13:53;101755.63;;;29.28;28.72
4705;BME280;2366;51.332;6.610;2022-07-04T13:16:18;101748.88;;;29.46;28.82
4705;BME280;2366;51.332;6.610;2022-07-04T13:18:44;101745.03;;;29.62;29.00
4705;BME280;2366;51.332;6.610;2022-07-04T13:21:09;101745.44;;;29.37;29.31
4705;BME280;2366;51.332;6.610;2022-07-04T13:23:35;101751.25;;;29.34;29.87
4705;BME280;2366;51.332;6.610;2022-07-04T13:26:00;101749.47;;;29.63;29.39
4705;BME280;2366;51.332;6.610;2022-07-04T13:28:27;101748.31;;;29.72;29.61
4705;BME280;2366;51.332;6.610;2022-07-04T13:30:52;101748.16;;;30.02;28.96
4705;BME280;2366;51.332;6.610;2022-07-04T13:33:17;101747.84;;;30.18;27.84
4705;BME280;2366;51.332;6.610;2022-07-04T13:35:43;101746.59;;;29.93;27.56
4705;BME280;2366;51.332;6.610;2022-07-04T13:38:08;101752.06;;;30.21;28.38
4705;BME280;2366;51.332;6.610;2022-07-04T13:40:34;101753.41;;;30.60;27.93
4705;BME280;2366;51.332;6.610;2022-07-04T13:43:00;101748.84;;;30.67;27.88